Time;durP1;ratioP1;P1;durP2;ratioP2;P2;SDS_P1;SDS_P2;PMS_P1;PMS_P2;Temp;Humidity;BMP_temperature;BMP_pressure;BME280_temperature;BME280_humidity;BME280_pressure;Samples;Min_cycle;Max_cycle;Signal;HPM_P1;HPM_P2
2023/04/01 00:01:55;;;;;;;9.00;1.57;;;;;;;12.52;63.20;98994.16;4903265;29;20209;-69
2023/04/01 00:04:23;;;;;;;2.47;0.60;;;;;;;12.49;63.31;98991.91;4902864;29;20217;-66
2023/04/01 00:06:51;;;;;;;3.47;0.90;;;;;;;12.53;63.42;98999.28;4905221;29;21046;-68
2023/04/01 00:09:19;;;;;;;7.57;1.10;;;;;;;12.53;63.31;98987.84;4906615;29;20835;-67
2023/04/01 00:11:48;;;;;;;3.63;1.00;;;;;;;12.50;63.80;98982.91;4907549;29;20213;-67
2023/04/01 00:14:16;;;;;;;4.53;1.30;;;;;;;12.49;63.70;98986.59;4905729;29;20225;-69
2023/04/01 00:16:44;;;;;;;6.70;0.90;;;;;;;12.52;63.70;98988.84;4905324;29;20213;-68
2023/04/01 00:19:11;;;;;;;4.03;1.00;;;;;;;12.53;63.70;98982.53;4906781;29;20216;-68
2023/04/01 00:21:40;;;;;;;5.43;1.17;;;;;;;12.51;63.86;98974.72;4905904;29;20247;-68
2023/04/01 00:24:07;;;;;;;9.53;1.67;;;;;;;12.46;63.60;98971.84;4907498;29;20236;-68
2023/04/01 00:26:35;;;;;;;7.13;1.30;;;;;;;12.47;63.57;98975.34;4906238;29;20215;-68
2023/04/01 00:29:05;;;;;;;8.00;1.07;;;;;;;12.46;63.63;98965.72;4909690;29;20208;-68
2023/04/01 00:31:33;;;;;;;4.53;0.90;;;;;;;12.46;63.47;98985.16;4907694;29;20264;-66
2023/04/01 00:34:01;;;;;;;3.60;0.97;;;;;;;12.38;63.46;98978.16;4904567;29;21261;-67
2023/04/01 00:36:29;;;;;;;4.63;1.23;;;;;;;12.41;63.47;98968.94;4907905;29;20224;-67
2023/04/01 00:38:58;;;;;;;8.60;0.87;;;;;;;12.41;63.90;98975.09;4903584;29;20204;-68
2023/04/01 00:41:26;;;;;;;5.73;0.80;;;;;;;12.40;63.64;98984.06;4903984;29;21048;-66
2023/04/01 00:44:09;;;;;;;4.93;0.70;;;;;;;12.40;63.60;98970.78;4904608;29;20308;-67
2023/04/01 00:46:38;;;;;;;5.47;0.97;;;;;;;12.40;63.77;98978.75;4902316;29;20220;-67
2023/04/01 00:49:06;;;;;;;3.00;0.90;;;;;;;12.35;63.66;98981.19;4906188;29;20582;-68
2023/04/01 00:51:35;;;;;;;4.77;0.80;;;;;;;12.38;63.81;98969.34;4905665;29;20248;-73
2023/04/01 00:54:03;;;;;;;4.07;0.63;;;;;;;12.39;63.79;98971.81;4906924;29;20597;-74
2023/04/01 00:56:36;;;;;;;4.93;1.10;;;;;;;12.38;63.74;98986.13;4904511;29;20216;-71
2023/04/01 00:59:08;;;;;;;4.57;0.80;;;;;;;12.38;63.76;98983.47;4904093;29;20269;-73
2023/04/01 01:01:38;;;;;;;4.13;0.70;;;;;;;12.41;63.65;98982.25;4902891;29;20241;-73
2023/04/01 01:04:05;;;;;;;5.47;1.00;;;;;;;12.38;63.73;98983.47;4907653;29;20232;-72
2023/04/01 01:06:47;;;;;;;6.97;2.27;;;;;;;12.36;63.51;98974.88;4906965;29;20224;-71
2023/04/01 01:09:30;;;;;;;3.97;1.20;;;;;;;12.39;63.15;98987.78;4903676;29;20296;-73
2023/04/01 01:12:07;;;;;;;5.60;1.00;;;;;;;12.40;63.16;98978.75;4906795;29;20220;-71
2023/04/01 01:14:48;;;;;;;5.67;0.73;;;;;;;12.34;63.22;98970.75;4904889;29;20331;-74
2023/04/01 01:17:27;;;;;;;8.03;1.17;;;;;;;12.31;63.00;98979.94;4907189;29;20219;-72
2023/04/01 01:20:25;;;;;;;6.47;1.07;;;;;;;12.34;63.21;98984.03;4907428;29;20350;-71
2023/04/01 01:23:15;;;;;;;6.57;1.20;;;;;;;12.35;63.26;98986.50;4905808;29;20239;-74
2023/04/01 01:25:55;;;;;;;6.43;0.97;;;;;;;12.31;63.12;98979.13;4892922;29;20220;-73
2023/04/01 01:28:39;;;;;;;4.93;0.80;;;;;;;12.28;63.62;98959.06;4903998;29;21169;-72
2023/04/01 01:31:20;;;;;;;5.50;1.00;;;;;;;12.34;63.43;98968.09;4905281;29;20252;-71
2023/04/01 01:34:02;;;;;;;4.27;1.10;;;;;;;12.32;62.96;98960.31;4903313;29;20263;-75
2023/04/01 01:36:34;;;;;;;5.50;1.97;;;;;;;12.30;63.68;98973.00;4905732;29;20223;-74
2023/04/01 01:39:04;;;;;;;4.60;0.90;;;;;;;12.36;63.23;98968.72;4902927;29;20366;-73
2023/04/01 01:41:35;;;;;;;5.73;1.03;;;;;;;12.34;63.31;98965.44;4904130;29;20823;-72
2023/04/01 01:44:05;;;;;;;6.33;1.07;;;;;;;12.36;63.42;98961.56;4902258;29;20205;-72
2023/04/01 01:46:34;;;;;;;4.03;1.20;;;;;;;12.32;63.56;98962.16;4905900;29;20216;-73
2023/04/01 01:49:06;;;;;;;5.80;1.20;;;;;;;12.27;64.46;98949.47;4905137;29;20243;-72
2023/04/01 01:51:35;;;;;;;3.40;0.83;;;;;;;12.19;64.72;98944.31;4901482;29;20249;-72
2023/04/01 01:54:03;;;;;;;8.93;1.30;;;;;;;12.18;65.02;98955.94;4900972;29;20554;-75
2023/04/01 01:56:33;;;;;;;5.97;1.00;;;;;;;12.19;65.18;98946.97;4901997;29;20220;-72
2023/04/01 01:59:04;;;;;;;2.87;0.70;;;;;;;12.19;65.16;98954.09;4901673;29;20216;-74
2023/04/01 02:01:35;;;;;;;5.53;1.03;;;;;;;12.18;64.98;98953.28;4899175;29;21275;-74
2023/04/01 02:04:04;;;;;;;4.87;0.90;;;;;;;12.20;65.24;98951.25;4902791;29;20213;-73
2023/04/01 02:06:37;;;;;;;7.30;1.00;;;;;;;12.25;64.83;98955.97;4901631;29;20594;-73
2023/04/01 02:09:07;;;;;;;5.60;1.10;;;;;;;12.27;64.16;98952.13;4902820;29;20235;-73
2023/04/01 02:11:39;;;;;;;9.30;1.10;;;;;;;12.29;64.38;98954.59;4904241;29;20212;-73
2023/04/01 02:14:11;;;;;;;3.30;0.97;;;;;;;12.27;64.48;98957.44;4901766;29;20216;-73
2023/04/01 02:16:43;;;;;;;4.93;1.03;;;;;;;12.23;64.95;98950.84;4904242;29;20303;-72
2023/04/01 02:19:14;;;;;;;6.60;0.93;;;;;;;12.23;65.17;98958.81;4902491;29;20526;-72
2023/04/01 02:21:44;;;;;;;3.73;0.80;;;;;;;12.23;64.85;98948.19;4904511;29;20241;-74
2023/04/01 02:24:15;;;;;;;5.50;1.03;;;;;;;12.24;65.18;98957.81;4906359;29;20601;-72
2023/04/01 02:26:45;;;;;;;4.80;1.10;;;;;;;12.18;64.73;98963.09;4902861;29;20229;-73
2023/04/01 02:29:14;;;;;;;4.40;0.80;;;;;;;12.06;65.48;98960.16;4903905;29;20218;-74
2023/04/01 02:31:43;;;;;;;3.53;0.87;;;;;;;12.04;65.71;98959.53;4904369;29;20217;-72
2023/04/01 02:34:11;;;;;;;7.77;1.33;;;;;;;12.07;65.89;98951.16;4905323;29;20213;-74
2023/04/01 02:36:39;;;;;;;5.33;0.97;;;;;;;12.11;65.68;98962.25;4905074;29;20898;-71
2023/04/01 02:39:09;;;;;;;3.07;0.73;;;;;;;12.09;65.92;98958.94;4902750;29;20217;-73
2023/04/01 02:41:40;;;;;;;4.20;0.80;;;;;;;12.11;66.30;98962.25;4902631;29;20256;-74
2023/04/01 02:44:08;;;;;;;5.83;1.33;;;;;;;12.14;66.37;98964.50;4905577;29;20228;-73
2023/04/01 02:46:36;;;;;;;4.50;0.73;;;;;;;12.18;66.37;98955.94;4906771;29;20251;-72
2023/04/01 02:49:04;;;;;;;4.23;1.10;;;;;;;12.20;66.51;98967.22;4905372;29;20596;-72
2023/04/01 02:51:33;;;;;;;5.70;0.97;;;;;;;12.13;66.75;98955.72;4903018;29;20260;-73
2023/04/01 02:54:00;;;;;;;6.37;0.60;;;;;;;12.12;66.80;98964.69;4908099;29;20209;-73
2023/04/01 02:56:30;;;;;;;3.17;0.80;;;;;;;12.09;67.01;98954.44;4905228;29;20221;-73
2023/04/01 02:58:57;;;;;;;5.23;1.20;;;;;;;12.00;67.68;98955.63;4903261;29;20211;-73
2023/04/01 03:01:25;;;;;;;6.23;1.43;;;;;;;12.04;67.22;98948.91;4903763;29;20383;-73
2023/04/01 03:03:53;;;;;;;5.10;0.80;;;;;;;12.04;66.91;98952.41;4903168;29;20234;-71
2023/04/01 03:06:21;;;;;;;5.67;0.87;;;;;;;12.04;67.37;98947.09;4902932;29;20560;-73
2023/04/01 03:08:48;;;;;;;5.23;0.90;;;;;;;12.07;67.18;98956.47;4904898;29;20573;-73
2023/04/01 03:11:16;;;;;;;2.97;0.70;;;;;;;12.04;67.36;98946.25;4905668;29;20665;-74
2023/04/01 03:13:45;;;;;;;5.20;0.60;;;;;;;12.01;67.34;98950.13;4906461;29;20220;-72
2023/04/01 03:16:13;;;;;;;3.80;0.90;;;;;;;12.03;67.24;98944.63;4907280;29;20224;-73
2023/04/01 03:18:41;;;;;;;4.43;0.70;;;;;;;11.93;67.53;98944.13;4902353;29;20237;-72
2023/04/01 03:21:16;;;;;;;4.00;0.73;;;;;;;11.99;67.42;98946.00;4902845;29;20236;-73
2023/04/01 03:23:44;;;;;;;3.43;0.60;;;;;;;11.99;67.44;98944.16;4903093;29;20212;-74
2023/04/01 03:26:11;;;;;;;3.03;0.60;;;;;;;11.91;67.45;98948.81;4904441;29;20703;-71
2023/04/01 03:28:39;;;;;;;4.23;0.70;;;;;;;11.97;67.15;98948.03;4907389;29;20615;-74
2023/04/01 03:31:08;;;;;;;4.43;0.83;;;;;;;11.94;67.56;98951.91;4904123;29;20216;-71
2023/04/01 03:33:36;;;;;;;2.13;0.50;;;;;;;11.92;67.54;98947.78;4901600;29;20239;-72
2023/04/01 03:36:06;;;;;;;3.03;0.67;;;;;;;11.93;67.17;98944.94;4906599;29;20663;-73
2023/04/01 03:38:34;;;;;;;5.17;0.73;;;;;;;11.95;66.79;98950.91;4904964;29;20631;-74
2023/04/01 03:41:02;;;;;;;2.93;1.00;;;;;;;11.92;66.69;98955.75;4902878;29;20312;-74
2023/04/01 03:43:30;;;;;;;2.83;0.90;;;;;;;11.96;66.50;98954.38;4906607;29;20225;-72
2023/04/01 03:45:58;;;;;;;5.33;0.90;;;;;;;11.99;66.10;98944.16;4904566;29;20212;-74
2023/04/01 03:48:27;;;;;;;4.03;0.83;;;;;;;12.03;66.18;98955.25;4901513;29;20216;-72
2023/04/01 03:50:55;;;;;;;5.27;0.83;;;;;;;12.01;66.00;98954.59;4903013;29;20709;-72
2023/04/01 03:53:23;;;;;;;4.60;0.80;;;;;;;12.08;66.05;98952.81;4902669;29;20651;-70
2023/04/01 03:55:51;;;;;;;4.83;0.70;;;;;;;12.09;65.72;98950.97;4902303;29;20245;-72
2023/04/01 03:58:20;;;;;;;4.43;0.73;;;;;;;12.16;65.37;98960.63;4907955;29;20212;-73
2023/04/01 04:00:47;;;;;;;2.87;0.60;;;;;;;12.18;65.19;98963.91;4903093;29;20216;-74
2023/04/01 04:03:15;;;;;;;4.80;0.93;;;;;;;12.19;64.86;98962.91;4900592;29;20237;-74
2023/04/01 04:05:48;;;;;;;5.90;1.27;;;;;;;12.16;64.84;98955.31;4902632;29;20662;-72
2023/04/01 04:08:16;;;;;;;4.57;0.93;;;;;;;12.15;64.88;98944.88;4903725;29;20623;-72
2023/04/01 04:10:44;;;;;;;3.47;0.90;;;;;;;12.12;64.90;98943.44;4902697;29;20268;-74
2023/04/01 04:13:12;;;;;;;2.77;0.60;;;;;;;12.10;65.20;98950.78;4899625;29;20219;-72
2023/04/01 04:15:40;;;;;;;4.20;0.70;;;;;;;12.15;64.94;98945.69;4903919;29;20412;-71
2023/04/01 04:18:07;;;;;;;3.80;0.80;;;;;;;12.17;64.77;98951.63;4905578;29;20740;-74
2023/04/01 04:20:35;;;;;;;4.70;0.73;;;;;;;12.18;64.89;98944.50;4905341;29;20217;-73
2023/04/01 04:23:04;;;;;;;4.00;1.00;;;;;;;12.21;65.12;98952.09;4906122;29;20234;-72
2023/04/01 04:25:32;;;;;;;3.27;0.80;;;;;;;12.20;64.95;98953.91;4906900;29;20216;-72
2023/04/01 04:28:00;;;;;;;2.70;0.70;;;;;;;12.25;65.00;98954.13;4905749;29;20241;-72
2023/04/01 04:30:28;;;;;;;4.03;0.83;;;;;;;12.28;64.37;98951.09;4906870;29;20212;-72
2023/04/01 04:32:55;;;;;;;2.77;0.70;;;;;;;12.26;64.77;98947.00;4903175;29;20570;-74
2023/04/01 04:35:23;;;;;;;4.27;0.80;;;;;;;12.29;64.74;98944.78;4903092;29;20241;-72
2023/04/01 04:37:51;;;;;;;5.10;0.80;;;;;;;12.35;64.47;98943.97;4906725;29;20856;-74
2023/04/01 04:40:20;;;;;;;6.60;1.40;;;;;;;12.30;64.70;98962.38;4906486;29;20225;-75
2023/04/01 04:42:47;;;;;;;5.10;0.90;;;;;;;12.28;64.76;98947.63;4905376;29;20237;-72
2023/04/01 04:45:15;;;;;;;5.20;0.60;;;;;;;12.29;65.10;98959.91;4902450;29;20303;-73
2023/04/01 04:47:43;;;;;;;4.40;0.80;;;;;;;12.25;65.14;98954.13;4902461;29;20245;-72
2023/04/01 04:50:11;;;;;;;5.00;0.93;;;;;;;12.23;65.54;98961.47;4905361;29;20213;-71
2023/04/01 04:52:39;;;;;;;3.00;0.90;;;;;;;12.21;65.66;98952.91;4902908;29;20256;-72
2023/04/01 04:55:08;;;;;;;2.67;0.57;;;;;;;12.25;65.92;98963.94;4907426;29;20220;-74
2023/04/01 04:57:37;;;;;;;2.17;0.90;;;;;;;12.28;66.05;98961.75;4907857;29;20555;-72
2023/04/01 05:00:06;;;;;;;4.00;0.87;;;;;;;12.32;65.87;98959.50;4905286;29;20219;-73
2023/04/01 05:02:35;;;;;;;3.47;0.70;;;;;;;12.35;66.11;98961.75;4905832;29;20319;-72
2023/04/01 05:05:04;;;;;;;3.97;0.60;;;;;;;12.29;65.90;98958.06;4904471;29;21481;-72
2023/04/01 05:07:31;;;;;;;3.63;0.77;;;;;;;12.27;66.20;98961.94;4905119;29;20220;-72
2023/04/01 05:09:59;;;;;;;2.77;0.57;;;;;;;12.20;66.17;98961.91;4903416;29;20212;-73
2023/04/01 05:12:27;;;;;;;4.30;0.60;;;;;;;12.24;66.63;98957.00;4905427;29;20212;-74
2023/04/01 05:14:56;;;;;;;3.13;0.77;;;;;;;12.25;66.24;98954.13;4904934;29;20213;-73
2023/04/01 05:17:24;;;;;;;2.27;0.70;;;;;;;12.17;66.94;98959.63;4903159;29;20288;-73
2023/04/01 05:19:52;;;;;;;3.50;0.83;;;;;;;12.18;67.17;98961.25;4905841;29;20208;-74
2023/04/01 05:22:19;;;;;;;3.30;0.50;;;;;;;12.21;66.50;98952.91;4906554;29;20243;-74
2023/04/01 05:24:47;;;;;;;4.30;1.27;;;;;;;12.17;66.45;98948.97;4904073;29;20268;-72
2023/04/01 05:27:16;;;;;;;4.73;0.70;;;;;;;12.16;66.54;98950.00;4906234;29;20225;-74
2023/04/01 05:29:43;;;;;;;3.20;0.80;;;;;;;12.14;66.35;98952.03;4907602;29;20303;-71
2023/04/01 05:32:12;;;;;;;3.00;0.70;;;;;;;12.19;66.30;98951.44;4907447;29;20209;-72
2023/04/01 05:34:40;;;;;;;2.93;0.57;;;;;;;12.26;65.90;98950.47;4905102;29;20671;-72
2023/04/01 05:37:08;;;;;;;5.90;0.90;;;;;;;12.30;66.06;98954.41;4906296;29;20216;-73
2023/04/01 05:39:37;;;;;;;2.70;0.47;;;;;;;12.28;66.20;98953.75;4905139;29;20566;-73
2023/04/01 05:42:08;;;;;;;2.40;0.40;;;;;;;12.31;65.78;98942.72;4902438;29;20212;-73
2023/04/01 05:44:36;;;;;;;3.73;0.80;;;;;;;12.33;65.73;98947.84;4904456;29;20217;-71
2023/04/01 05:47:04;;;;;;;4.40;0.67;;;;;;;12.29;65.48;98943.94;4905330;29;21076;-72
2023/04/01 05:49:34;;;;;;;3.20;0.80;;;;;;;12.28;65.68;98948.44;4906702;29;20347;-74
2023/04/01 05:52:02;;;;;;;1.80;0.47;;;;;;;12.36;65.52;98950.94;4901156;29;20335;-71
2023/04/01 05:54:29;;;;;;;4.80;1.37;;;;;;;12.34;65.57;98939.69;4909356;29;20225;-73
2023/04/01 05:56:57;;;;;;;2.63;0.60;;;;;;;12.29;65.82;98941.28;4906359;29;20216;-72
2023/04/01 05:59:25;;;;;;;3.60;0.40;;;;;;;12.26;66.02;98939.84;4907940;29;20220;-71
2023/04/01 06:01:53;;;;;;;4.47;0.77;;;;;;;12.32;65.85;98944.38;4904243;29;20216;-74
2023/04/01 06:04:21;;;;;;;3.23;0.43;;;;;;;12.23;66.24;98944.72;4905286;29;20241;-74
2023/04/01 06:06:51;;;;;;;2.70;0.70;;;;;;;12.17;66.73;98941.00;4904575;29;20216;-74
2023/04/01 06:09:21;;;;;;;2.53;0.53;;;;;;;12.23;66.79;98945.53;4901830;29;20218;-73
2023/04/01 06:12:11;;;;;;;2.73;0.80;;;;;;;12.30;66.45;98943.75;4900640;29;20221;-73
2023/04/01 06:14:48;;;;;;;1.47;0.30;;;;;;;12.34;65.65;98942.34;4902663;29;20288;-72
2023/04/01 06:17:28;;;;;;;2.17;0.40;;;;;;;12.35;65.47;98935.19;4901980;29;20213;-72
2023/04/01 06:20:01;;;;;;;1.50;0.47;;;;;;;12.36;65.62;98935.00;4903717;29;20674;-72
2023/04/01 06:22:55;;;;;;;2.73;0.87;;;;;;;12.34;65.48;98947.66;4906135;29;20215;-73
2023/04/01 06:25:38;;;;;;;2.37;0.50;;;;;;;12.31;65.62;98932.09;4905798;29;20237;-72
2023/04/01 06:28:36;;;;;;;3.23;0.60;;;;;;;12.36;65.06;98929.69;4904234;29;20243;-73
2023/04/01 06:31:10;;;;;;;5.03;0.80;;;;;;;12.34;65.66;98926.38;4904492;29;20236;-73
2023/04/01 06:33:53;;;;;;;2.13;0.40;;;;;;;12.37;65.22;98939.28;4904935;29;20225;-73
2023/04/01 06:36:38;;;;;;;2.43;0.50;;;;;;;12.38;64.89;98940.13;4906277;29;20215;-73
2023/04/01 06:39:26;;;;;;;2.37;0.57;;;;;;;12.41;64.93;98947.69;4903321;29;20307;-72
2023/04/01 06:42:26;;;;;;;1.73;0.93;;;;;;;12.40;64.79;98946.84;4901866;29;20218;-73
2023/04/01 06:45:03;;;;;;;2.33;0.47;;;;;;;12.34;65.10;98942.34;4905413;29;20234;-72
2023/04/01 06:47:45;;;;;;;6.10;0.60;;;;;;;12.40;65.26;98941.53;4905183;29;20226;-72
2023/04/01 06:50:20;;;;;;;2.07;0.40;;;;;;;12.40;65.36;98952.19;4905146;29;20209;-73
2023/04/01 06:52:59;;;;;;;2.23;0.50;;;;;;;12.45;65.63;98938.31;4902478;29;20243;-74
2023/04/01 06:55:37;;;;;;;1.83;0.40;;;;;;;12.56;65.45;98947.56;4900894;29;20288;-73
2023/04/01 06:58:11;;;;;;;4.20;0.60;;;;;;;12.63;65.54;98941.25;4905122;29;20214;-74
2023/04/01 07:00:42;;;;;;;1.63;0.33;;;;;;;12.59;65.85;98944.50;4902703;29;20277;-73
2023/04/01 07:03:21;;;;;;;1.43;0.40;;;;;;;12.56;66.20;98947.56;4904612;29;20300;-71
2023/04/01 07:05:50;;;;;;;2.30;0.40;;;;;;;12.60;66.40;98941.66;4906957;29;20214;-63
2023/04/01 07:08:21;;;;;;;0.87;0.27;;;;;;;12.58;66.22;98934.88;4906255;29;20631;-63
2023/04/01 07:10:56;;;;;;;2.40;0.40;;;;;;;12.70;66.70;98930.63;4904368;29;20239;-62
2023/04/01 07:13:30;;;;;;;2.30;0.40;;;;;;;12.78;66.16;98922.47;4908293;29;20210;-63
2023/04/01 07:16:07;;;;;;;0.90;0.50;;;;;;;12.79;66.04;98935.59;4904413;29;20210;-63
2023/04/01 07:18:42;;;;;;;1.40;0.30;;;;;;;12.94;65.63;98940.75;4904091;29;20212;-63
2023/04/01 07:21:18;;;;;;;1.77;0.40;;;;;;;12.87;65.53;98939.91;4905081;29;20211;-63
2023/04/01 07:23:47;;;;;;;1.50;0.50;;;;;;;13.02;66.02;98940.56;4905393;29;20340;-64
2023/04/01 07:26:21;;;;;;;2.77;0.43;;;;;;;13.06;65.33;98930.34;4904486;29;20219;-63
2023/04/01 07:28:51;;;;;;;1.13;0.33;;;;;;;13.19;64.96;98941.84;4906791;29;20212;-62
2023/04/01 07:31:50;;;;;;;1.47;0.50;;;;;;;13.25;64.82;98939.44;4906992;29;20299;-63
2023/04/01 07:34:24;;;;;;;1.57;0.40;;;;;;;13.19;64.68;98938.41;4887952;29;20212;-65
2023/04/01 07:37:01;;;;;;;1.33;0.50;;;;;;;13.23;64.64;98941.47;4902356;29;20218;-64
2023/04/01 07:39:38;;;;;;;0.53;0.20;;;;;;;13.23;64.53;98944.13;4904213;29;20240;-64
2023/04/01 07:42:17;;;;;;;1.07;0.50;;;;;;;13.19;65.22;98957.81;4906862;29;20213;-64
2023/04/01 07:44:55;;;;;;;1.37;0.40;;;;;;;13.19;64.83;98957.81;4907835;29;20236;-63
2023/04/01 07:47:44;;;;;;;2.00;0.57;;;;;;;13.26;64.78;98965.03;4907439;29;20286;-63
2023/04/01 07:50:23;;;;;;;1.03;0.50;;;;;;;13.25;64.97;98950.91;4905853;29;20307;-63
2023/04/01 07:53:01;;;;;;;1.37;0.53;;;;;;;13.30;64.65;98967.06;4902476;29;20317;-64
2023/04/01 07:55:36;;;;;;;1.00;0.30;;;;;;;13.29;64.79;98959.28;4905459;29;20298;-64
2023/04/01 07:58:13;;;;;;;0.73;0.43;;;;;;;13.27;64.60;98966.69;4908770;29;20566;-63
2023/04/01 08:00:48;;;;;;;1.57;0.30;;;;;;;13.15;64.84;98956.59;4901316;29;20210;-64
2023/04/01 08:03:32;;;;;;;1.53;0.33;;;;;;;13.14;65.62;98965.59;4907981;29;20216;-65
2023/04/01 08:06:07;;;;;;;1.40;0.50;;;;;;;13.21;65.81;98962.94;4904148;29;21054;-63
2023/04/01 08:08:46;;;;;;;2.80;0.50;;;;;;;13.11;65.72;98965.97;4905638;29;20331;-63
2023/04/01 08:11:26;;;;;;;0.77;0.30;;;;;;;13.06;65.98;98973.75;4907455;29;20215;-63
2023/04/01 08:14:04;;;;;;;0.90;0.23;;;;;;;13.15;65.97;98975.25;4903932;29;20211;-63
2023/04/01 08:16:38;;;;;;;2.67;0.50;;;;;;;13.12;65.80;98978.25;4905241;29;20653;-64
2023/04/01 08:19:22;;;;;;;1.93;0.40;;;;;;;13.11;66.26;98986.44;4906545;29;20224;-64
2023/04/01 08:21:53;;;;;;;1.63;0.40;;;;;;;13.11;66.71;98976.63;4904469;29;20214;-64
2023/04/01 08:24:27;;;;;;;1.60;0.30;;;;;;;13.20;66.53;98979.94;4904673;29;20237;-64
2023/04/01 08:27:18;;;;;;;1.13;0.40;;;;;;;13.23;66.47;98984.06;4906992;29;20233;-63
2023/04/01 08:29:53;;;;;;;1.73;0.50;;;;;;;13.23;66.71;98984.88;4906808;29;20221;-63
2023/04/01 08:32:26;;;;;;;1.90;0.40;;;;;;;13.34;66.41;98986.13;4905854;29;20207;-65
2023/04/01 08:35:03;;;;;;;1.70;0.40;;;;;;;13.30;66.33;98991.03;4907719;29;20236;-64
2023/04/01 08:37:36;;;;;;;2.53;0.53;;;;;;;13.35;66.55;98998.44;4910906;29;20208;-64
2023/04/01 08:40:34;;;;;;;0.57;0.10;;;;;;;13.37;66.42;98991.84;4908870;29;20763;-63
2023/04/01 08:43:13;;;;;;;1.13;0.40;;;;;;;13.38;66.60;98992.69;4907999;29;20222;-64
2023/04/01 08:45:55;;;;;;;1.27;0.40;;;;;;;13.39;66.94;98997.00;4905295;29;20239;-64
2023/04/01 08:48:44;;;;;;;0.67;0.27;;;;;;;13.46;66.78;99001.28;4908055;29;20215;-63
2023/04/01 08:51:50;;;;;;;0.40;0.20;;;;;;;13.52;66.38;98989.03;4908826;29;20338;-64
2023/04/01 08:54:37;;;;;;;1.07;0.30;;;;;;;13.66;66.27;98988.03;4908945;29;20220;-63
2023/04/01 08:57:14;;;;;;;0.63;0.20;;;;;;;13.64;66.49;98998.03;4903258;29;20250;-65
2023/04/01 09:00:03;;;;;;;1.27;0.73;;;;;;;13.61;66.50;98995.81;4907695;29;20208;-64
2023/04/01 09:02:50;;;;;;;2.10;0.40;;;;;;;13.71;66.25;98998.91;4906587;29;20650;-64
2023/04/01 09:05:48;;;;;;;0.70;0.30;;;;;;;13.81;66.26;98993.97;4907040;29;20726;-63
2023/04/01 09:08:36;;;;;;;0.20;0.20;;;;;;;13.72;66.74;98995.19;4907264;29;20587;-64
2023/04/01 09:11:09;;;;;;;0.93;0.30;;;;;;;13.77;66.38;98994.59;4903567;29;20211;-63
2023/04/01 09:13:57;;;;;;;0.80;0.20;;;;;;;13.77;66.65;98995.41;4905706;29;20231;-63
2023/04/01 09:16:36;;;;;;;0.77;0.30;;;;;;;13.83;67.03;98999.91;4908360;29;20269;-65
2023/04/01 09:19:20;;;;;;;1.20;0.20;;;;;;;13.81;67.32;99015.28;4909456;29;20633;-65
2023/04/01 09:22:10;;;;;;;0.77;0.30;;;;;;;13.88;67.10;99000.13;4906805;29;20211;-63
2023/04/01 09:24:53;;;;;;;0.60;0.20;;;;;;;13.88;67.77;99005.47;4908996;29;20240;-64
2023/04/01 09:27:28;;;;;;;0.20;0.10;;;;;;;13.93;67.33;99007.50;4910652;29;20260;-65
2023/04/01 09:30:32;;;;;;;0.20;0.20;;;;;;;13.97;67.29;99024.75;4905454;29;20209;-66
2023/04/01 09:33:27;;;;;;;0.57;0.33;;;;;;;13.93;67.52;99029.63;4910264;29;20281;-65
2023/04/01 09:36:05;;;;;;;0.70;0.30;;;;;;;13.84;68.17;99022.88;4889637;29;20233;-66
2023/04/01 09:38:45;;;;;;;1.23;0.20;;;;;;;13.90;67.99;99016.72;4904888;29;20219;-65
2023/04/01 09:41:23;;;;;;;1.60;0.30;;;;;;;13.92;68.13;99012.00;4905365;29;20245;-66
2023/04/01 09:44:03;;;;;;;1.60;0.30;;;;;;;13.98;67.41;99014.91;4908491;29;20249;-65
2023/04/01 09:46:45;;;;;;;1.17;0.20;;;;;;;13.89;67.89;99019.59;4904763;29;20595;-65
2023/04/01 09:49:42;;;;;;;0.67;0.40;;;;;;;14.01;67.49;99025.13;4909248;29;20215;-66
2023/04/01 09:52:22;;;;;;;0.50;0.20;;;;;;;14.06;67.70;99022.69;4907714;29;20252;-66
2023/04/01 09:55:05;;;;;;;0.77;0.20;;;;;;;14.12;67.29;99028.00;4907254;29;20371;-65
2023/04/01 09:57:53;;;;;;;0.63;0.10;;;;;;;14.07;67.50;99033.13;4907639;29;20212;-65
2023/04/01 10:00:40;;;;;;;0.47;0.20;;;;;;;14.13;67.31;99028.81;4904483;29;20216;-67
2023/04/01 10:03:49;;;;;;;0.13;0.13;;;;;;;14.12;67.47;99027.19;4907973;29;20232;-67
2023/04/01 10:06:57;;;;;;;0.40;0.20;;;;;;;14.17;67.72;99030.84;4906281;29;20243;-68
2023/04/01 10:09:49;;;;;;;0.50;0.30;;;;;;;14.24;67.14;99031.69;4903398;29;20247;-64
2023/04/01 10:12:45;;;;;;;0.13;0.10;;;;;;;14.30;67.34;99030.03;4906017;29;20627;-63
2023/04/01 10:15:39;;;;;;;1.27;0.37;;;;;;;14.45;66.64;99028.00;4905479;29;20594;-63
2023/04/01 10:18:41;;;;;;;0.30;0.20;;;;;;;14.39;66.22;99028.84;4907171;29;20247;-63
2023/04/01 10:21:35;;;;;;;0.60;0.30;;;;;;;14.47;66.24;99031.28;4906052;29;20330;-64
2023/04/01 10:24:43;;;;;;;0.63;0.30;;;;;;;14.57;65.29;99037.00;4908777;29;20585;-63
2023/04/01 10:27:25;;;;;;;0.97;0.33;;;;;;;14.44;65.60;99036.19;4908658;29;20224;-64
2023/04/01 10:30:33;;;;;;;0.40;0.20;;;;;;;14.47;65.60;99035.78;4909565;29;20232;-64
2023/04/01 10:33:20;;;;;;;1.13;0.10;;;;;;;14.23;67.12;99040.72;4902064;29;20239;-64
2023/04/01 10:36:51;;;;;;;1.43;0.30;;;;;;;14.18;67.53;99034.34;4906561;29;20207;-64
2023/04/01 10:40:19;;;;;;;0.50;0.30;;;;;;;14.17;67.51;99046.03;4864661;29;20624;-64
2023/04/01 10:43:26;;;;;;;0.67;0.20;;;;;;;14.18;67.82;99037.84;4792384;29;20303;-64
2023/04/01 10:46:20;;;;;;;0.30;0.20;;;;;;;14.24;67.96;99037.03;4908064;29;20322;-64
2023/04/01 10:49:19;;;;;;;0.50;0.30;;;;;;;14.30;67.41;99040.72;4906052;29;20343;-64
2023/04/01 10:52:24;;;;;;;0.30;0.20;;;;;;;14.37;67.33;99046.84;4901416;29;20280;-64
2023/04/01 10:55:10;;;;;;;0.57;0.30;;;;;;;14.31;67.64;99045.03;4906000;29;20243;-64
2023/04/01 10:58:11;;;;;;;0.67;0.30;;;;;;;14.26;67.94;99044.81;4905302;29;20221;-64
2023/04/01 11:01:21;;;;;;;0.53;0.23;;;;;;;14.27;67.90;99041.94;4905453;29;20221;-64
2023/04/01 11:04:28;;;;;;;0.40;0.20;;;;;;;14.25;67.96;99045.81;4886397;29;20218;-64
2023/04/01 11:07:36;;;;;;;0.23;0.23;;;;;;;14.32;67.59;99036.81;4888913;29;20236;-64
2023/04/01 11:10:52;;;;;;;0.17;0.10;;;;;;;14.39;67.40;99044.84;4881102;29;20677;-64
2023/04/01 11:13:53;;;;;;;0.70;0.30;;;;;;;14.43;67.30;99042.56;4902650;29;20235;-64
2023/04/01 11:16:51;;;;;;;0.27;0.20;;;;;;;14.46;67.20;99045.63;4900380;29;20211;-64
2023/04/01 11:20:04;;;;;;;0.77;0.30;;;;;;;14.47;67.06;99046.47;4900978;29;20212;-63
2023/04/01 11:22:50;;;;;;;1.40;0.33;;;;;;;14.58;66.79;99045.84;4889381;29;20224;-63
2023/04/01 11:25:44;;;;;;;0.37;0.30;;;;;;;14.62;66.17;99050.53;4901897;29;20228;-63
2023/04/01 11:28:37;;;;;;;0.30;0.30;;;;;;;14.61;66.27;99048.88;4903049;29;20302;-63
2023/04/01 11:31:17;;;;;;;0.80;0.30;;;;;;;14.72;66.29;99050.09;4902349;29;20728;-63
2023/04/01 11:33:54;;;;;;;0.40;0.20;;;;;;;14.58;66.17;99043.16;4902346;29;20293;-65
2023/04/01 11:36:33;;;;;;;0.80;0.30;;;;;;;14.62;66.68;99050.53;4902718;29;20843;-62
2023/04/01 11:39:24;;;;;;;0.23;0.17;;;;;;;14.57;65.85;99058.34;4903776;29;20221;-61
2023/04/01 11:42:02;;;;;;;0.53;0.20;;;;;;;14.43;66.24;99063.88;4902293;29;20216;-63
2023/04/01 11:44:31;;;;;;;0.90;0.30;;;;;;;14.49;66.49;99063.09;4906505;29;20212;-62
2023/04/01 11:47:20;;;;;;;1.77;0.60;;;;;;;14.52;66.63;99063.47;4904288;29;20239;-63
2023/04/01 11:50:00;;;;;;;0.63;0.50;;;;;;;14.49;66.50;99071.09;4904179;29;20212;-62
2023/04/01 11:52:51;;;;;;;0.60;0.30;;;;;;;14.46;65.87;99066.16;4899788;29;20540;-63
2023/04/01 11:55:34;;;;;;;0.80;0.30;;;;;;;14.52;65.81;99075.97;4899760;29;20216;-64
2023/04/01 11:58:37;;;;;;;0.53;0.30;;;;;;;14.47;65.03;99078.47;4905348;29;20310;-64
2023/04/01 12:01:29;;;;;;;1.53;0.30;;;;;;;14.47;65.46;99073.13;4909265;29;20227;-64
2023/04/01 12:04:28;;;;;;;1.10;0.30;;;;;;;14.53;64.95;99070.44;4906143;29;20213;-64
2023/04/01 12:07:04;;;;;;;0.73;0.40;;;;;;;14.44;64.70;99084.19;4901989;29;20265;-64
2023/04/01 12:09:42;;;;;;;0.30;0.23;;;;;;;14.51;64.55;99080.50;4906602;29;20231;-64
2023/04/01 12:12:18;;;;;;;1.63;0.30;;;;;;;14.53;64.47;99083.78;4904006;29;20223;-63
2023/04/01 12:15:00;;;;;;;0.30;0.30;;;;;;;14.53;64.20;99081.13;4905344;29;20299;-64
2023/04/01 12:17:37;;;;;;;0.67;0.27;;;;;;;14.53;64.47;99082.97;4907045;29;20278;-64
2023/04/01 12:20:27;;;;;;;0.20;0.20;;;;;;;14.57;63.77;99092.22;4907312;29;20230;-64
2023/04/01 12:23:03;;;;;;;0.73;0.30;;;;;;;14.61;63.68;99086.25;4908116;29;20674;-64